sensor_id;sensor_type;location;lat;lon;timestamp;P1;durP1;ratioP1;P2;durP2;ratioP2
20695;SDS011;10507;52.754;13.040;2023-11-21T00:01:03;14.53;;;9.07;;
20695;SDS011;10507;52.754;13.040;2023-11-21T00:03:31;14.67;;;9.10;;
20695;SDS011;10507;52.754;13.040;2023-11-21T00:06:00;14.10;;;9.37;;
20695;SDS011;10507;52.754;13.040;2023-11-21T00:08:29;15.37;;;8.40;;
20695;SDS011;10507;52.754;13.040;2023-11-21T00:10:57;14.77;;;8.63;;
20695;SDS011;10507;52.754;13.040;2023-11-21T00:13:26;14.73;;;9.50;;
20695;SDS011;10507;52.754;13.040;2023-11-21T00:15:54;13.67;;;8.60;;
20695;SDS011;10507;52.754;13.040;2023-11-21T00:18:22;13.77;;;9.20;;
20695;SDS011;10507;52.754;13.040;2023-11-21T00:20:50;14.67;;;9.80;;
20695;SDS011;10507;52.754;13.040;2023-11-21T00:23:18;15.17;;;9.67;;
20695;SDS011;10507;52.754;13.040;2023-11-21T00:25:47;15.70;;;10.33;;
20695;SDS011;10507;52.754;13.040;2023-11-21T00:28:15;14.87;;;9.63;;
20695;SDS011;10507;52.754;13.040;2023-11-21T00:30:43;15.80;;;10.17;;
20695;SDS011;10507;52.754;13.040;2023-11-21T00:33:11;14.20;;;9.53;;
20695;SDS011;10507;52.754;13.040;2023-11-21T00:35:39;14.60;;;9.50;;
20695;SDS011;10507;52.754;13.040;2023-11-21T00:38:07;16.13;;;9.13;;
20695;SDS011;10507;52.754;13.040;2023-11-21T00:40:35;16.20;;;9.63;;
20695;SDS011;10507;52.754;13.040;2023-11-21T00:43:05;16.40;;;9.50;;
20695;SDS011;10507;52.754;13.040;2023-11-21T00:45:33;15.80;;;9.07;;
20695;SDS011;10507;52.754;13.040;2023-11-21T00:48:03;15.27;;;9.20;;
20695;SDS011;10507;52.754;13.040;2023-11-21T00:50:31;16.87;;;9.77;;
20695;SDS011;10507;52.754;13.040;2023-11-21T00:52:59;15.20;;;9.07;;
20695;SDS011;10507;52.754;13.040;2023-11-21T00:55:28;15.07;;;9.50;;
20695;SDS011;10507;52.754;13.040;2023-11-21T00:57:56;13.63;;;9.40;;
20695;SDS011;10507;52.754;13.040;2023-11-21T01:00:26;15.30;;;9.27;;
20695;SDS011;10507;52.754;13.040;2023-11-21T01:02:54;14.60;;;9.47;;
20695;SDS011;10507;52.754;13.040;2023-11-21T01:05:23;14.13;;;8.63;;
20695;SDS011;10507;52.754;13.040;2023-11-21T01:07:51;13.87;;;9.00;;
20695;SDS011;10507;52.754;13.040;2023-11-21T01:10:19;12.80;;;8.67;;
20695;SDS011;10507;52.754;13.040;2023-11-21T01:12:47;12.30;;;8.07;;
20695;SDS011;10507;52.754;13.040;2023-11-21T01:15:15;12.27;;;7.87;;
20695;SDS011;10507;52.754;13.040;2023-11-21T01:17:44;10.97;;;7.70;;
20695;SDS011;10507;52.754;13.040;2023-11-21T01:20:12;11.63;;;7.17;;
20695;SDS011;10507;52.754;13.040;2023-11-21T01:22:41;12.53;;;8.20;;
20695;SDS011;10507;52.754;13.040;2023-11-21T01:25:09;12.77;;;7.60;;
20695;SDS011;10507;52.754;13.040;2023-11-21T01:27:40;13.27;;;8.40;;
20695;SDS011;10507;52.754;13.040;2023-11-21T01:30:09;13.40;;;8.03;;
20695;SDS011;10507;52.754;13.040;2023-11-21T01:32:38;10.90;;;6.83;;
20695;SDS011;10507;52.754;13.040;2023-11-21T01:35:08;10.67;;;7.23;;
20695;SDS011;10507;52.754;13.040;2023-11-21T01:37:37;11.33;;;6.87;;
20695;SDS011;10507;52.754;13.040;2023-11-21T01:40:06;11.17;;;6.97;;
20695;SDS011;10507;52.754;13.040;2023-11-21T01:42:39;11.33;;;7.57;;
20695;SDS011;10507;52.754;13.040;2023-11-21T01:45:08;11.90;;;7.33;;
20695;SDS011;10507;52.754;13.040;2023-11-21T01:47:38;10.83;;;7.50;;
20695;SDS011;10507;52.754;13.040;2023-11-21T01:50:13;13.17;;;7.30;;
20695;SDS011;10507;52.754;13.040;2023-11-21T01:52:45;13.20;;;7.67;;
20695;SDS011;10507;52.754;13.040;2023-11-21T01:55:14;13.73;;;7.37;;
20695;SDS011;10507;52.754;13.040;2023-11-21T01:57:54;12.43;;;8.00;;
20695;SDS011;10507;52.754;13.040;2023-11-21T02:00:23;14.60;;;8.43;;
20695;SDS011;10507;52.754;13.040;2023-11-21T02:02:52;11.87;;;7.50;;
20695;SDS011;10507;52.754;13.040;2023-11-21T02:05:21;14.20;;;8.23;;
20695;SDS011;10507;52.754;13.040;2023-11-21T02:07:49;15.97;;;9.20;;
20695;SDS011;10507;52.754;13.040;2023-11-21T02:10:19;14.53;;;8.27;;
20695;SDS011;10507;52.754;13.040;2023-11-21T02:12:50;13.60;;;9.30;;
20695;SDS011;10507;52.754;13.040;2023-11-21T02:15:18;14.33;;;9.20;;
20695;SDS011;10507;52.754;13.040;2023-11-21T02:17:49;13.30;;;8.97;;
20695;SDS011;10507;52.754;13.040;2023-11-21T02:20:19;15.07;;;8.70;;
20695;SDS011;10507;52.754;13.040;2023-11-21T02:22:51;14.27;;;9.00;;
20695;SDS011;10507;52.754;13.040;2023-11-21T02:25:22;15.07;;;8.90;;
20695;SDS011;10507;52.754;13.040;2023-11-21T02:27:50;15.87;;;9.30;;
20695;SDS011;10507;52.754;13.040;2023-11-21T02:30:18;15.27;;;9.40;;
20695;SDS011;10507;52.754;13.040;2023-11-21T02:32:47;14.53;;;9.30;;
20695;SDS011;10507;52.754;13.040;2023-11-21T02:35:16;12.90;;;8.87;;
20695;SDS011;10507;52.754;13.040;2023-11-21T02:37:44;14.90;;;8.80;;
20695;SDS011;10507;52.754;13.040;2023-11-21T02:40:13;14.60;;;9.07;;
20695;SDS011;10507;52.754;13.040;2023-11-21T02:42:44;15.23;;;9.07;;
20695;SDS011;10507;52.754;13.040;2023-11-21T02:45:14;15.03;;;8.93;;
20695;SDS011;10507;52.754;13.040;2023-11-21T02:47:43;15.53;;;8.83;;
20695;SDS011;10507;52.754;13.040;2023-11-21T02:50:12;15.63;;;9.27;;
20695;SDS011;10507;52.754;13.040;2023-11-21T02:52:40;15.50;;;8.83;;
20695;SDS011;10507;52.754;13.040;2023-11-21T02:55:08;15.90;;;8.97;;
20695;SDS011;10507;52.754;13.040;2023-11-21T02:57:37;17.33;;;10.10;;
20695;SDS011;10507;52.754;13.040;2023-11-21T03:00:06;18.10;;;9.53;;
20695;SDS011;10507;52.754;13.040;2023-11-21T03:02:35;18.03;;;10.40;;
20695;SDS011;10507;52.754;13.040;2023-11-21T03:05:06;16.97;;;10.17;;
20695;SDS011;10507;52.754;13.040;2023-11-21T03:07:36;15.23;;;9.67;;
20695;SDS011;10507;52.754;13.040;2023-11-21T03:10:05;14.60;;;8.93;;
20695;SDS011;10507;52.754;13.040;2023-11-21T03:12:37;15.53;;;9.37;;
20695;SDS011;10507;52.754;13.040;2023-11-21T03:15:06;16.47;;;9.57;;
20695;SDS011;10507;52.754;13.040;2023-11-21T03:17:34;13.83;;;8.73;;
20695;SDS011;10507;52.754;13.040;2023-11-21T03:20:03;17.23;;;9.90;;
20695;SDS011;10507;52.754;13.040;2023-11-21T03:22:32;14.20;;;8.33;;
20695;SDS011;10507;52.754;13.040;2023-11-21T03:25:00;18.07;;;10.27;;
20695;SDS011;10507;52.754;13.040;2023-11-21T03:27:29;17.00;;;9.03;;
20695;SDS011;10507;52.754;13.040;2023-11-21T03:29:58;17.03;;;10.10;;
20695;SDS011;10507;52.754;13.040;2023-11-21T03:32:26;19.33;;;9.57;;
20695;SDS011;10507;52.754;13.040;2023-11-21T03:34:54;15.50;;;9.40;;
20695;SDS011;10507;52.754;13.040;2023-11-21T03:37:25;18.53;;;10.30;;
20695;SDS011;10507;52.754;13.040;2023-11-21T03:39:54;18.70;;;10.37;;
20695;SDS011;10507;52.754;13.040;2023-11-21T03:42:22;18.73;;;10.73;;
20695;SDS011;10507;52.754;13.040;2023-11-21T03:44:56;18.87;;;11.37;;
20695;SDS011;10507;52.754;13.040;2023-11-21T03:47:25;17.20;;;10.57;;
20695;SDS011;10507;52.754;13.040;2023-11-21T03:49:53;18.20;;;10.73;;
20695;SDS011;10507;52.754;13.040;2023-11-21T03:52:22;20.53;;;10.97;;
20695;SDS011;10507;52.754;13.040;2023-11-21T03:54:49;19.43;;;11.83;;
20695;SDS011;10507;52.754;13.040;2023-11-21T03:57:17;16.63;;;10.77;;
20695;SDS011;10507;52.754;13.040;2023-11-21T03:59:45;18.87;;;10.87;;
20695;SDS011;10507;52.754;13.040;2023-11-21T04:02:13;18.13;;;10.20;;
20695;SDS011;10507;52.754;13.040;2023-11-21T04:04:43;16.40;;;9.93;;
20695;SDS011;10507;52.754;13.040;2023-11-21T04:07:11;19.27;;;10.90;;
20695;SDS011;10507;52.754;13.040;2023-11-21T04:09:40;16.47;;;10.53;;
20695;SDS011;10507;52.754;13.040;2023-11-21T04:12:08;17.17;;;10.70;;
20695;SDS011;10507;52.754;13.040;2023-11-21T04:14:36;18.23;;;10.63;;
20695;SDS011;10507;52.754;13.040;2023-11-21T04:17:04;16.70;;;10.03;;
20695;SDS011;10507;52.754;13.040;2023-11-21T04:19:32;16.60;;;9.93;;
20695;SDS011;10507;52.754;13.040;2023-11-21T04:22:01;18.60;;;10.60;;
20695;SDS011;10507;52.754;13.040;2023-11-21T04:24:30;20.73;;;10.63;;
20695;SDS011;10507;52.754;13.040;2023-11-21T04:26:58;19.40;;;10.57;;
20695;SDS011;10507;52.754;13.040;2023-11-21T04:29:26;18.30;;;9.87;;
20695;SDS011;10507;52.754;13.040;2023-11-21T04:31:53;18.60;;;10.63;;
20695;SDS011;10507;52.754;13.040;2023-11-21T04:34:21;16.90;;;10.27;;
20695;SDS011;10507;52.754;13.040;2023-11-21T04:36:49;18.17;;;10.30;;
20695;SDS011;10507;52.754;13.040;2023-11-21T04:39:19;17.50;;;10.33;;
20695;SDS011;10507;52.754;13.040;2023-11-21T04:41:47;18.00;;;10.40;;
20695;SDS011;10507;52.754;13.040;2023-11-21T04:44:15;16.23;;;10.10;;
20695;SDS011;10507;52.754;13.040;2023-11-21T04:46:43;13.90;;;8.83;;
20695;SDS011;10507;52.754;13.040;2023-11-21T04:49:11;14.53;;;8.97;;
20695;SDS011;10507;52.754;13.040;2023-11-21T04:51:39;15.57;;;9.67;;
20695;SDS011;10507;52.754;13.040;2023-11-21T04:54:07;16.90;;;9.10;;
20695;SDS011;10507;52.754;13.040;2023-11-21T04:56:37;16.83;;;10.13;;
20695;SDS011;10507;52.754;13.040;2023-11-21T04:59:04;15.50;;;9.90;;
20695;SDS011;10507;52.754;13.040;2023-11-21T05:01:32;14.27;;;9.10;;
20695;SDS011;10507;52.754;13.040;2023-11-21T05:04:00;18.23;;;9.77;;
20695;SDS011;10507;52.754;13.040;2023-11-21T05:06:28;16.10;;;9.27;;
20695;SDS011;10507;52.754;13.040;2023-11-21T05:08:56;16.30;;;8.17;;
20695;SDS011;10507;52.754;13.040;2023-11-21T05:11:25;15.43;;;8.73;;
20695;SDS011;10507;52.754;13.040;2023-11-21T05:13:54;16.87;;;9.60;;
20695;SDS011;10507;52.754;13.040;2023-11-21T05:16:25;13.90;;;8.53;;
20695;SDS011;10507;52.754;13.040;2023-11-21T05:18:56;15.77;;;9.03;;
20695;SDS011;10507;52.754;13.040;2023-11-21T05:21:27;13.67;;;8.50;;
20695;SDS011;10507;52.754;13.040;2023-11-21T05:23:57;16.63;;;9.40;;
20695;SDS011;10507;52.754;13.040;2023-11-21T05:26:26;13.53;;;8.53;;
20695;SDS011;10507;52.754;13.040;2023-11-21T05:28:55;14.83;;;8.50;;
20695;SDS011;10507;52.754;13.040;2023-11-21T05:31:23;13.90;;;9.20;;
20695;SDS011;10507;52.754;13.040;2023-11-21T05:33:51;14.77;;;8.50;;
20695;SDS011;10507;52.754;13.040;2023-11-21T05:36:19;15.40;;;8.10;;
20695;SDS011;10507;52.754;13.040;2023-11-21T05:38:47;14.23;;;8.33;;
20695;SDS011;10507;52.754;13.040;2023-11-21T05:41:15;13.60;;;8.30;;
20695;SDS011;10507;52.754;13.040;2023-11-21T05:43:43;13.17;;;8.50;;
20695;SDS011;10507;52.754;13.040;2023-11-21T05:46:13;14.53;;;9.33;;
20695;SDS011;10507;52.754;13.040;2023-11-21T05:48:41;14.17;;;8.40;;
20695;SDS011;10507;52.754;13.040;2023-11-21T05:51:09;14.23;;;8.97;;
20695;SDS011;10507;52.754;13.040;2023-11-21T05:53:39;14.33;;;8.93;;
20695;SDS011;10507;52.754;13.040;2023-11-21T05:56:07;12.63;;;7.50;;
20695;SDS011;10507;52.754;13.040;2023-11-21T05:58:35;13.30;;;8.00;;
20695;SDS011;10507;52.754;13.040;2023-11-21T06:01:05;13.20;;;7.63;;
20695;SDS011;10507;52.754;13.040;2023-11-21T06:03:37;11.60;;;7.40;;
20695;SDS011;10507;52.754;13.040;2023-11-21T06:06:05;11.87;;;8.07;;
20695;SDS011;10507;52.754;13.040;2023-11-21T06:08:33;13.17;;;7.60;;
20695;SDS011;10507;52.754;13.040;2023-11-21T06:11:01;12.07;;;7.10;;
20695;SDS011;10507;52.754;13.040;2023-11-21T06:13:29;11.40;;;7.07;;
20695;SDS011;10507;52.754;13.040;2023-11-21T06:15:57;11.23;;;6.57;;
20695;SDS011;10507;52.754;13.040;2023-11-21T06:18:25;10.17;;;6.47;;
20695;SDS011;10507;52.754;13.040;2023-11-21T06:20:54;10.30;;;5.77;;
20695;SDS011;10507;52.754;13.040;2023-11-21T06:23:22;12.53;;;6.50;;
20695;SDS011;10507;52.754;13.040;2023-11-21T06:25:50;11.50;;;6.47;;
20695;SDS011;10507;52.754;13.040;2023-11-21T06:28:19;10.80;;;6.50;;
20695;SDS011;10507;52.754;13.040;2023-11-21T06:30:47;11.97;;;7.03;;
20695;SDS011;10507;52.754;13.040;2023-11-21T06:33:15;11.70;;;6.60;;
20695;SDS011;10507;52.754;13.040;2023-11-21T06:35:43;11.90;;;6.80;;
20695;SDS011;10507;52.754;13.040;2023-11-21T06:38:12;10.53;;;6.80;;
20695;SDS011;10507;52.754;13.040;2023-11-21T06:40:40;11.43;;;7.03;;
20695;SDS011;10507;52.754;13.040;2023-11-21T06:43:08;12.27;;;6.70;;
20695;SDS011;10507;52.754;13.040;2023-11-21T06:45:36;12.40;;;7.17;;
20695;SDS011;10507;52.754;13.040;2023-11-21T06:48:04;9.93;;;6.40;;
20695;SDS011;10507;52.754;13.040;2023-11-21T06:50:32;11.83;;;6.23;;
20695;SDS011;10507;52.754;13.040;2023-11-21T06:53:00;12.77;;;6.57;;
20695;SDS011;10507;52.754;13.040;2023-11-21T06:55:31;10.17;;;5.87;;
20695;SDS011;10507;52.754;13.040;2023-11-21T06:58:00;10.40;;;6.80;;
20695;SDS011;10507;52.754;13.040;2023-11-21T07:00:27;10.90;;;7.23;;
20695;SDS011;10507;52.754;13.040;2023-11-21T07:02:55;9.07;;;5.90;;
20695;SDS011;10507;52.754;13.040;2023-11-21T07:05:23;11.03;;;6.47;;
20695;SDS011;10507;52.754;13.040;2023-11-21T07:07:51;10.63;;;6.73;;
20695;SDS011;10507;52.754;13.040;2023-11-21T07:10:20;10.97;;;7.50;;
20695;SDS011;10507;52.754;13.040;2023-11-21T07:12:50;10.00;;;6.30;;
20695;SDS011;10507;52.754;13.040;2023-11-21T07:15:18;10.50;;;6.27;;
20695;SDS011;10507;52.754;13.040;2023-11-21T07:17:46;8.73;;;5.50;;
20695;SDS011;10507;52.754;13.040;2023-11-21T07:20:15;8.30;;;5.63;;
20695;SDS011;10507;52.754;13.040;2023-11-21T07:22:44;9.47;;;6.20;;
20695;SDS011;10507;52.754;13.040;2023-11-21T07:25:12;12.27;;;6.50;;
20695;SDS011;10507;52.754;13.040;2023-11-21T07:27:39;12.50;;;6.87;;
20695;SDS011;10507;52.754;13.040;2023-11-21T07:30:10;9.90;;;6.50;;
20695;SDS011;10507;52.754;13.040;2023-11-21T07:32:39;9.77;;;6.03;;
20695;SDS011;10507;52.754;13.040;2023-11-21T07:35:08;12.00;;;6.27;;
20695;SDS011;10507;52.754;13.040;2023-11-21T07:37:36;8.80;;;5.93;;
20695;SDS011;10507;52.754;13.040;2023-11-21T07:40:05;10.90;;;6.80;;
20695;SDS011;10507;52.754;13.040;2023-11-21T07:42:35;9.57;;;5.63;;
20695;SDS011;10507;52.754;13.040;2023-11-21T07:45:03;8.83;;;5.67;;
20695;SDS011;10507;52.754;13.040;2023-11-21T07:47:34;9.30;;;5.50;;
20695;SDS011;10507;52.754;13.040;2023-11-21T07:50:02;8.77;;;4.90;;
20695;SDS011;10507;52.754;13.040;2023-11-21T07:52:31;10.03;;;5.37;;
20695;SDS011;10507;52.754;13.040;2023-11-21T07:54:59;9.93;;;5.17;;
20695;SDS011;10507;52.754;13.040;2023-11-21T07:57:27;8.77;;;5.33;;
20695;SDS011;10507;52.754;13.040;2023-11-21T07:59:55;7.13;;;4.80;;
20695;SDS011;10507;52.754;13.040;2023-11-21T08:02:23;8.07;;;4.73;;
20695;SDS011;10507;52.754;13.040;2023-11-21T08:04:54;8.70;;;4.60;;
20695;SDS011;10507;52.754;13.040;2023-11-21T08:07:23;7.37;;;4.60;;
20695;SDS011;10507;52.754;13.040;2023-11-21T08:09:52;6.60;;;4.57;;
20695;SDS011;10507;52.754;13.040;2023-11-21T08:12:20;6.87;;;4.30;;
20695;SDS011;10507;52.754;13.040;2023-11-21T08:14:48;6.20;;;3.83;;
20695;SDS011;10507;52.754;13.040;2023-11-21T08:17:15;6.97;;;4.40;;
20695;SDS011;10507;52.754;13.040;2023-11-21T08:19:46;7.57;;;3.80;;
20695;SDS011;10507;52.754;13.040;2023-11-21T08:22:17;8.43;;;4.57;;
20695;SDS011;10507;52.754;13.040;2023-11-21T08:24:45;6.40;;;3.93;;
20695;SDS011;10507;52.754;13.040;2023-11-21T08:27:13;6.60;;;4.17;;
20695;SDS011;10507;52.754;13.040;2023-11-21T08:29:42;8.10;;;4.60;;
20695;SDS011;10507;52.754;13.040;2023-11-21T08:32:10;6.57;;;4.20;;
20695;SDS011;10507;52.754;13.040;2023-11-21T08:34:38;6.50;;;4.40;;
20695;SDS011;10507;52.754;13.040;2023-11-21T08:37:10;6.63;;;4.30;;
20695;SDS011;10507;52.754;13.040;2023-11-21T08:39:40;6.57;;;4.17;;
20695;SDS011;10507;52.754;13.040;2023-11-21T08:42:08;7.70;;;4.60;;
20695;SDS011;10507;52.754;13.040;2023-11-21T08:44:36;6.97;;;4.10;;
20695;SDS011;10507;52.754;13.040;2023-11-21T08:47:05;8.53;;;5.00;;
20695;SDS011;10507;52.754;13.040;2023-11-21T08:49:34;8.37;;;5.13;;
20695;SDS011;10507;52.754;13.040;2023-11-21T08:52:03;7.83;;;4.63;;
20695;SDS011;10507;52.754;13.040;2023-11-21T08:54:31;7.53;;;4.60;;
20695;SDS011;10507;52.754;13.040;2023-11-21T08:57:02;7.27;;;4.90;;
20695;SDS011;10507;52.754;13.040;2023-11-21T08:59:30;9.53;;;4.00;;
20695;SDS011;10507;52.754;13.040;2023-11-21T09:01:58;6.83;;;4.90;;
20695;SDS011;10507;52.754;13.040;2023-11-21T09:04:26;7.77;;;5.20;;
20695;SDS011;10507;52.754;13.040;2023-11-21T09:06:54;7.90;;;5.27;;
20695;SDS011;10507;52.754;13.040;2023-11-21T09:09:22;9.80;;;5.67;;
20695;SDS011;10507;52.754;13.040;2023-11-21T09:11:51;8.53;;;5.50;;
20695;SDS011;10507;52.754;13.040;2023-11-21T09:14:20;8.53;;;5.10;;
20695;SDS011;10507;52.754;13.040;2023-11-21T09:16:48;7.87;;;5.50;;
20695;SDS011;10507;52.754;13.040;2023-11-21T09:19:17;8.57;;;5.60;;
20695;SDS011;10507;52.754;13.040;2023-11-21T09:21:45;10.03;;;6.10;;
20695;SDS011;10507;52.754;13.040;2023-11-21T09:24:13;7.33;;;5.57;;
20695;SDS011;10507;52.754;13.040;2023-11-21T09:26:41;9.30;;;5.77;;
20695;SDS011;10507;52.754;13.040;2023-11-21T09:29:09;9.00;;;5.87;;
20695;SDS011;10507;52.754;13.040;2023-11-21T09:31:38;10.10;;;6.87;;
20695;SDS011;10507;52.754;13.040;2023-11-21T09:34:06;9.53;;;6.37;;
20695;SDS011;10507;52.754;13.040;2023-11-21T09:36:34;8.50;;;6.17;;
20695;SDS011;10507;52.754;13.040;2023-11-21T09:39:04;7.80;;;5.60;;
20695;SDS011;10507;52.754;13.040;2023-11-21T09:41:36;9.60;;;6.00;;
20695;SDS011;10507;52.754;13.040;2023-11-21T09:44:12;9.47;;;6.43;;
20695;SDS011;10507;52.754;13.040;2023-11-21T09:46:44;10.83;;;5.90;;
20695;SDS011;10507;52.754;13.040;2023-11-21T09:49:16;8.40;;;6.10;;
20695;SDS011;10507;52.754;13.040;2023-11-21T09:51:46;8.53;;;5.80;;
20695;SDS011;10507;52.754;13.040;2023-11-21T09:54:15;9.20;;;5.47;;
20695;SDS011;10507;52.754;13.040;2023-11-21T09:56:44;8.93;;;6.00;;
20695;SDS011;10507;52.754;13.040;2023-11-21T09:59:13;9.00;;;5.70;;
20695;SDS011;10507;52.754;13.040;2023-11-21T10:01:43;7.63;;;5.10;;
20695;SDS011;10507;52.754;13.040;2023-11-21T10:04:13;8.50;;;4.83;;
20695;SDS011;10507;52.754;13.040;2023-11-21T10:06:42;8.40;;;5.47;;
20695;SDS011;10507;52.754;13.040;2023-11-21T10:09:12;10.17;;;6.93;;
20695;SDS011;10507;52.754;13.040;2023-11-21T10:11:41;7.83;;;5.20;;
20695;SDS011;10507;52.754;13.040;2023-11-21T10:14:10;8.87;;;5.53;;
20695;SDS011;10507;52.754;13.040;2023-11-21T10:16:41;9.37;;;6.00;;
20695;SDS011;10507;52.754;13.040;2023-11-21T10:19:14;8.60;;;6.33;;
20695;SDS011;10507;52.754;13.040;2023-11-21T10:21:43;10.40;;;6.90;;
20695;SDS011;10507;52.754;13.040;2023-11-21T10:24:11;9.80;;;6.50;;
20695;SDS011;10507;52.754;13.040;2023-11-21T10:26:39;12.33;;;6.80;;
20695;SDS011;10507;52.754;13.040;2023-11-21T10:29:18;11.13;;;7.60;;
20695;SDS011;10507;52.754;13.040;2023-11-21T10:31:49;9.60;;;7.00;;
20695;SDS011;10507;52.754;13.040;2023-11-21T10:34:19;11.93;;;7.13;;
20695;SDS011;10507;52.754;13.040;2023-11-21T10:36:48;12.80;;;8.60;;
20695;SDS011;10507;52.754;13.040;2023-11-21T10:39:16;13.07;;;8.20;;
20695;SDS011;10507;52.754;13.040;2023-11-21T10:41:45;12.80;;;8.30;;
20695;SDS011;10507;52.754;13.040;2023-11-21T10:44:14;11.60;;;8.03;;
20695;SDS011;10507;52.754;13.040;2023-11-21T10:46:47;11.23;;;8.00;;
20695;SDS011;10507;52.754;13.040;2023-11-21T10:49:18;13.03;;;8.77;;
20695;SDS011;10507;52.754;13.040;2023-11-21T10:51:47;12.20;;;8.57;;
20695;SDS011;10507;52.754;13.040;2023-11-21T10:54:18;12.77;;;8.60;;
20695;SDS011;10507;52.754;13.040;2023-11-21T10:56:48;12.37;;;8.40;;
20695;SDS011;10507;52.754;13.040;2023-11-21T10:59:17;12.30;;;7.90;;
20695;SDS011;10507;52.754;13.040;2023-11-21T11:01:47;11.07;;;8.13;;
20695;SDS011;10507;52.754;13.040;2023-11-21T11:04:19;13.60;;;7.80;;
20695;SDS011;10507;52.754;13.040;2023-11-21T11:06:51;12.10;;;8.50;;
20695;SDS011;10507;52.754;13.040;2023-11-21T11:09:22;10.63;;;7.57;;
20695;SDS011;10507;52.754;13.040;2023-11-21T11:11:51;8.00;;;6.00;;
20695;SDS011;10507;52.754;13.040;2023-11-21T11:14:19;9.53;;;5.60;;
20695;SDS011;10507;52.754;13.040;2023-11-21T11:16:53;10.90;;;6.27;;
20695;SDS011;10507;52.754;13.040;2023-11-21T11:19:23;8.30;;;5.53;;
20695;SDS011;10507;52.754;13.040;2023-11-21T11:21:56;9.43;;;5.87;;
20695;SDS011;10507;52.754;13.040;2023-11-21T11:24:49;7.63;;;5.50;;
20695;SDS011;10507;52.754;13.040;2023-11-21T11:27:34;9.93;;;5.73;;
20695;SDS011;10507;52.754;13.040;2023-11-21T11:30:13;8.60;;;5.30;;
20695;SDS011;10507;52.754;13.040;2023-11-21T11:32:52;7.37;;;5.27;;
20695;SDS011;10507;52.754;13.040;2023-11-21T11:35:31;8.53;;;5.50;;
20695;SDS011;10507;52.754;13.040;2023-11-21T11:38:06;6.77;;;4.73;;
20695;SDS011;10507;52.754;13.040;2023-11-21T11:40:40;9.23;;;5.67;;
20695;SDS011;10507;52.754;13.040;2023-11-21T11:43:09;9.97;;;5.70;;
20695;SDS011;10507;52.754;13.040;2023-11-21T11:45:38;7.90;;;5.57;;
20695;SDS011;10507;52.754;13.040;2023-11-21T11:48:10;10.43;;;5.77;;
20695;SDS011;10507;52.754;13.040;2023-11-21T11:50:43;7.20;;;4.63;;
20695;SDS011;10507;52.754;13.040;2023-11-21T11:53:33;7.63;;;5.30;;
20695;SDS011;10507;52.754;13.040;2023-11-21T11:56:20;8.37;;;5.20;;
20695;SDS011;10507;52.754;13.040;2023-11-21T11:58:52;9.33;;;4.77;;
20695;SDS011;10507;52.754;13.040;2023-11-21T12:01:23;7.87;;;5.30;;
20695;SDS011;10507;52.754;13.040;2023-11-21T12:07:03;9.70;;;6.23;;
20695;SDS011;10507;52.754;13.040;2023-11-21T12:09:33;8.77;;;5.70;;
20695;SDS011;10507;52.754;13.040;2023-11-21T12:12:02;9.43;;;6.00;;
20695;SDS011;10507;52.754;13.040;2023-11-21T12:14:30;9.43;;;5.87;;
20695;SDS011;10507;52.754;13.040;2023-11-21T12:16:58;9.70;;;5.93;;
20695;SDS011;10507;52.754;13.040;2023-11-21T12:19:26;8.20;;;5.97;;
20695;SDS011;10507;52.754;13.040;2023-11-21T12:21:55;10.37;;;5.43;;
20695;SDS011;10507;52.754;13.040;2023-11-21T12:24:24;9.57;;;5.83;;
20695;SDS011;10507;52.754;13.040;2023-11-21T12:26:55;11.17;;;6.97;;
20695;SDS011;10507;52.754;13.040;2023-11-21T12:29:23;10.57;;;6.73;;
20695;SDS011;10507;52.754;13.040;2023-11-21T12:31:50;10.53;;;6.83;;
20695;SDS011;10507;52.754;13.040;2023-11-21T12:34:18;10.03;;;6.93;;
20695;SDS011;10507;52.754;13.040;2023-11-21T12:36:46;10.93;;;6.43;;
20695;SDS011;10507;52.754;13.040;2023-11-21T12:39:15;8.90;;;6.27;;
20695;SDS011;10507;52.754;13.040;2023-11-21T12:41:45;10.00;;;6.63;;
20695;SDS011;10507;52.754;13.040;2023-11-21T12:44:13;10.77;;;6.83;;
20695;SDS011;10507;52.754;13.040;2023-11-21T12:49:12;9.10;;;5.97;;
20695;SDS011;10507;52.754;13.040;2023-11-21T12:51:44;9.10;;;6.23;;
20695;SDS011;10507;52.754;13.040;2023-11-21T12:54:13;8.90;;;5.87;;
20695;SDS011;10507;52.754;13.040;2023-11-21T12:56:46;9.87;;;6.33;;
20695;SDS011;10507;52.754;13.040;2023-11-21T12:59:15;11.10;;;6.77;;
20695;SDS011;10507;52.754;13.040;2023-11-21T13:01:46;10.27;;;6.37;;
20695;SDS011;10507;52.754;13.040;2023-11-21T13:04:17;9.23;;;5.77;;
20695;SDS011;10507;52.754;13.040;2023-11-21T13:06:45;8.53;;;5.80;;
20695;SDS011;10507;52.754;13.040;2023-11-21T13:09:13;8.33;;;5.70;;
20695;SDS011;10507;52.754;13.040;2023-11-21T13:11:49;7.40;;;5.47;;
20695;SDS011;10507;52.754;13.040;2023-11-21T13:14:19;8.10;;;5.23;;
20695;SDS011;10507;52.754;13.040;2023-11-21T13:16:55;7.93;;;5.43;;
20695;SDS011;10507;52.754;13.040;2023-11-21T13:19:24;7.60;;;5.63;;
20695;SDS011;10507;52.754;13.040;2023-11-21T13:21:56;9.57;;;5.30;;
20695;SDS011;10507;52.754;13.040;2023-11-21T13:24:25;9.17;;;5.53;;
20695;SDS011;10507;52.754;13.040;2023-11-21T13:26:54;8.20;;;5.20;;
20695;SDS011;10507;52.754;13.040;2023-11-21T13:29:22;7.27;;;4.77;;
20695;SDS011;10507;52.754;13.040;2023-11-21T13:31:52;9.80;;;5.40;;
20695;SDS011;10507;52.754;13.040;2023-11-21T13:34:20;6.73;;;4.70;;
20695;SDS011;10507;52.754;13.040;2023-11-21T13:36:54;7.80;;;4.43;;
20695;SDS011;10507;52.754;13.040;2023-11-21T13:39:25;7.53;;;4.87;;
20695;SDS011;10507;52.754;13.040;2023-11-21T13:41:56;7.63;;;5.47;;
20695;SDS011;10507;52.754;13.040;2023-11-21T13:44:25;7.73;;;5.23;;
20695;SDS011;10507;52.754;13.040;2023-11-21T13:47:00;9.97;;;5.50;;
20695;SDS011;10507;52.754;13.040;2023-11-21T13:49:28;9.70;;;6.10;;
20695;SDS011;10507;52.754;13.040;2023-11-21T13:52:02;9.20;;;5.03;;
20695;SDS011;10507;52.754;13.040;2023-11-21T13:54:30;9.70;;;5.07;;
20695;SDS011;10507;52.754;13.040;2023-11-21T13:57:00;9.17;;;5.80;;
20695;SDS011;10507;52.754;13.040;2023-11-21T13:59:29;10.00;;;5.53;;
20695;SDS011;10507;52.754;13.040;2023-11-21T14:01:58;10.53;;;6.03;;
20695;SDS011;10507;52.754;13.040;2023-11-21T14:04:27;10.80;;;5.40;;
20695;SDS011;10507;52.754;13.040;2023-11-21T14:07:09;9.50;;;5.27;;
20695;SDS011;10507;52.754;13.040;2023-11-21T14:09:49;9.33;;;6.13;;
20695;SDS011;10507;52.754;13.040;2023-11-21T14:12:20;10.70;;;6.10;;
20695;SDS011;10507;52.754;13.040;2023-11-21T14:14:48;9.80;;;5.60;;
20695;SDS011;10507;52.754;13.040;2023-11-21T14:17:16;9.57;;;6.17;;
20695;SDS011;10507;52.754;13.040;2023-11-21T14:19:44;9.20;;;5.57;;
20695;SDS011;10507;52.754;13.040;2023-11-21T14:22:12;9.30;;;5.67;;
20695;SDS011;10507;52.754;13.040;2023-11-21T14:24:40;8.87;;;5.07;;
20695;SDS011;10507;52.754;13.040;2023-11-21T14:27:12;11.70;;;5.77;;
20695;SDS011;10507;52.754;13.040;2023-11-21T14:29:42;8.17;;;5.23;;
20695;SDS011;10507;52.754;13.040;2023-11-21T14:32:11;11.37;;;6.50;;
20695;SDS011;10507;52.754;13.040;2023-11-21T14:34:41;9.43;;;6.03;;
20695;SDS011;10507;52.754;13.040;2023-11-21T14:37:12;8.83;;;5.50;;
20695;SDS011;10507;52.754;13.040;2023-11-21T14:39:40;12.53;;;6.13;;
20695;SDS011;10507;52.754;13.040;2023-11-21T14:42:11;8.73;;;5.93;;
20695;SDS011;10507;52.754;13.040;2023-11-21T14:44:43;8.33;;;5.27;;